createdAt,value
2022-08-05T00:02:14.974Z,19.20
2022-08-05T00:05:05.620Z,19.10
2022-08-05T00:08:01.094Z,19.20
2022-08-05T00:10:48.930Z,19.10
2022-08-05T00:13:40.110Z,19.10
2022-08-05T00:16:35.679Z,19.10
2022-08-05T00:19:40.622Z,19.10
2022-08-05T00:22:32.408Z,19.10
2022-08-05T00:25:19.931Z,19.10
2022-08-05T00:28:08.241Z,19.00
2022-08-05T00:31:04.193Z,19.00
2022-08-05T00:34:56.409Z,18.90
2022-08-05T00:37:11.022Z,18.80
2022-08-05T00:40:01.013Z,18.70
2022-08-05T00:42:49.972Z,18.60
2022-08-05T00:45:39.114Z,18.60
2022-08-05T00:48:31.741Z,18.60
2022-08-05T00:51:50.224Z,18.60
2022-08-05T00:54:30.219Z,18.60
2022-08-05T00:57:21.162Z,18.60
2022-08-05T01:00:11.212Z,18.60
2022-08-05T01:03:01.059Z,18.60
2022-08-05T01:05:48.502Z,18.60
2022-08-05T01:08:43.704Z,18.60
2022-08-05T01:11:37.791Z,18.60
2022-08-05T01:14:37.577Z,18.60
2022-08-05T01:17:43.856Z,18.60
2022-08-05T01:21:06.082Z,18.60
2022-08-05T01:24:17.761Z,18.50
2022-08-05T01:27:19.342Z,18.40
2022-08-05T01:30:17.865Z,18.40
2022-08-05T01:33:11.641Z,18.40
2022-08-05T01:36:18.669Z,18.40
2022-08-05T01:39:09.673Z,18.40
2022-08-05T01:42:01.037Z,18.40
2022-08-05T01:44:54.344Z,18.30
2022-08-05T01:47:46.566Z,18.30
2022-08-05T01:50:41.857Z,18.20
2022-08-05T01:53:57.468Z,18.20
2022-08-05T01:58:11.440Z,18.20
2022-08-05T02:00:02.979Z,18.10
2022-08-05T02:03:03.568Z,18.10
2022-08-05T02:05:57.818Z,18.10
2022-08-05T02:08:57.897Z,18.10
2022-08-05T02:12:05.001Z,18.00
2022-08-05T02:15:33.174Z,17.80
2022-08-05T02:18:47.195Z,17.70
2022-08-05T02:21:46.773Z,17.70
2022-08-05T02:24:44.751Z,17.60
2022-08-05T02:27:59.657Z,17.50
2022-08-05T02:30:56.805Z,17.40
2022-08-05T02:34:04.405Z,17.40
2022-08-05T02:36:59.771Z,17.40
2022-08-05T02:39:53.699Z,17.40
2022-08-05T02:42:43.660Z,17.40
2022-08-05T02:45:52.006Z,17.50
2022-08-05T02:48:43.539Z,17.50
2022-08-05T02:52:03.394Z,17.50
2022-08-05T02:54:42.675Z,17.40
2022-08-05T02:58:10.466Z,17.50
2022-08-05T03:00:49.915Z,17.50
2022-08-05T03:04:03.216Z,17.40
2022-08-05T03:06:55.444Z,17.40
2022-08-05T03:09:51.640Z,17.50
2022-08-05T03:12:40.360Z,17.60
2022-08-05T03:15:28.803Z,17.70
2022-08-05T03:18:17.379Z,17.80
2022-08-05T03:21:05.681Z,17.90
2022-08-05T03:23:55.325Z,18.00
2022-08-05T03:26:45.678Z,17.90
2022-08-05T03:29:45.809Z,17.80
2022-08-05T03:32:46.904Z,17.70
2022-08-05T03:35:41.147Z,17.60
2022-08-05T03:38:33.393Z,17.50
2022-08-05T03:41:25.048Z,17.40
2022-08-05T03:44:12.510Z,17.40
2022-08-05T03:47:07.329Z,17.50
2022-08-05T03:49:54.813Z,17.70
2022-08-05T03:55:06.866Z,17.80
2022-08-05T03:56:33.137Z,17.70
2022-08-05T03:59:47.065Z,17.60
2022-08-05T04:02:52.328Z,17.40
2022-08-05T04:05:47.201Z,17.30
2022-08-05T04:08:37.054Z,17.20
2022-08-05T04:11:25.624Z,17.50
2022-08-05T04:14:33.539Z,17.60
2022-08-05T04:17:22.315Z,17.60
2022-08-05T04:20:23.365Z,17.70
2022-08-05T04:23:15.929Z,17.70
2022-08-05T04:26:04.507Z,17.70
2022-08-05T04:28:52.243Z,17.70
2022-08-05T04:31:39.960Z,17.80
2022-08-05T04:34:32.550Z,17.90
2022-08-05T04:37:21.572Z,18.20
2022-08-05T04:40:28.895Z,18.40
2022-08-05T04:43:17.340Z,18.70
2022-08-05T04:46:05.804Z,19.50
2022-08-05T04:48:53.895Z,20.00
2022-08-05T04:51:44.049Z,20.80
2022-08-05T04:54:31.612Z,21.50
2022-08-05T04:57:19.194Z,22.20
2022-08-05T05:00:09.063Z,22.70
2022-08-05T05:03:00.215Z,23.10
2022-08-05T05:06:39.292Z,23.60
2022-08-05T05:08:58.819Z,23.90
2022-08-05T05:11:54.533Z,24.40
2022-08-05T05:14:50.889Z,24.60
2022-08-05T05:17:56.694Z,25.00
2022-08-05T05:20:47.042Z,25.10
2022-08-05T05:24:02.310Z,25.40
2022-08-05T05:26:46.497Z,26.00
2022-08-05T05:29:40.845Z,26.20
2022-08-05T05:32:42.849Z,26.60
2022-08-05T05:35:37.896Z,27.10
2022-08-05T05:38:27.777Z,27.10
2022-08-05T05:41:16.426Z,27.20
2022-08-05T05:44:15.759Z,27.20
2022-08-05T05:47:46.435Z,27.30
2022-08-05T05:50:21.634Z,27.30
2022-08-05T05:53:22.405Z,26.80
2022-08-05T05:56:10.333Z,27.00
2022-08-05T05:58:57.850Z,26.80
2022-08-05T06:01:57.252Z,26.80
2022-08-05T06:04:49.353Z,26.70
2022-08-05T06:07:42.053Z,26.20
2022-08-05T06:10:36.594Z,26.00
2022-08-05T06:13:25.062Z,25.60
2022-08-05T06:16:30.851Z,25.30
2022-08-05T06:19:26.193Z,24.80
2022-08-05T06:22:34.866Z,24.40
2022-08-05T06:25:59.095Z,24.10
2022-08-05T06:28:29.824Z,23.90
2022-08-05T06:31:21.751Z,23.80
2022-08-05T06:34:09.894Z,23.70
2022-08-05T06:36:58.771Z,23.80
2022-08-05T06:39:46.404Z,23.80
2022-08-05T06:42:33.921Z,23.80
2022-08-05T06:46:02.983Z,23.70
2022-08-05T06:48:55.716Z,23.80
2022-08-05T06:51:40.827Z,23.90
2022-08-05T06:54:28.406Z,23.90
2022-08-05T06:57:57.143Z,24.00
2022-08-05T07:00:25.770Z,24.10
2022-08-05T07:03:13.185Z,24.20
2022-08-05T07:06:06.010Z,24.20
2022-08-05T07:09:03.967Z,24.30
2022-08-05T07:11:52.274Z,24.40
2022-08-05T07:14:58.626Z,24.50
2022-08-05T07:17:59.255Z,24.50
2022-08-05T07:20:55.667Z,24.60
2022-08-05T07:23:49.771Z,24.80
2022-08-05T07:26:37.885Z,25.10
2022-08-05T07:30:22.803Z,25.30
2022-08-05T07:32:38.597Z,25.30
2022-08-05T07:36:02.054Z,25.40
2022-08-05T07:38:43.383Z,25.60
2022-08-05T07:42:07.744Z,25.80
2022-08-05T07:44:39.354Z,26.00
2022-08-05T07:47:27.170Z,26.50
2022-08-05T07:50:32.491Z,26.80
2022-08-05T07:53:21.105Z,26.90
2022-08-05T07:57:00.322Z,27.20
2022-08-05T07:59:16.073Z,27.40
2022-08-05T08:02:04.144Z,27.60
2022-08-05T08:04:51.520Z,27.70
2022-08-05T08:08:00.101Z,27.80
2022-08-05T08:10:48.825Z,28.00
2022-08-05T08:13:42.793Z,28.20
2022-08-05T08:16:51.015Z,28.50
2022-08-05T08:20:21.241Z,28.40
2022-08-05T08:22:59.452Z,28.30
2022-08-05T08:25:59.691Z,28.30
2022-08-05T08:28:59.446Z,28.10
2022-08-05T08:31:50.921Z,28.10
2022-08-05T08:34:38.459Z,28.10
2022-08-05T08:37:27.858Z,28.00
2022-08-05T08:40:15.685Z,27.90
2022-08-05T08:45:20.785Z,27.90
2022-08-05T08:46:15.613Z,28.00
2022-08-05T08:50:14.689Z,28.30
2022-08-05T08:52:19.860Z,28.30
2022-08-05T08:55:13.254Z,28.60
2022-08-05T08:58:02.554Z,28.80
2022-08-05T09:00:51.663Z,28.70
2022-08-05T09:03:44.913Z,28.80
2022-08-05T09:06:36.146Z,28.90
2022-08-05T09:09:24.229Z,28.90
2022-08-05T09:12:20.665Z,28.80
2022-08-05T09:15:15.269Z,28.90
2022-08-05T09:18:02.782Z,28.90
2022-08-05T09:20:51.368Z,28.80
2022-08-05T09:23:43.631Z,29.10
2022-08-05T09:26:32.403Z,29.40
2022-08-05T09:29:20.374Z,29.60
2022-08-05T09:32:41.581Z,29.80
2022-08-05T09:35:26.332Z,29.80
2022-08-05T09:38:18.101Z,30.00
2022-08-05T09:41:12.501Z,29.90
2022-08-05T09:44:04.093Z,29.90
2022-08-05T09:47:47.972Z,30.00
2022-08-05T09:50:44.053Z,30.50
2022-08-05T09:53:59.257Z,30.90
2022-08-05T09:56:52.250Z,31.00
2022-08-05T09:59:40.050Z,31.30
2022-08-05T10:02:46.489Z,31.40
2022-08-05T10:05:36.202Z,31.60
2022-08-05T10:08:36.587Z,31.90
2022-08-05T10:11:31.363Z,32.10
2022-08-05T10:14:28.237Z,31.70
2022-08-05T10:17:39.295Z,31.40
2022-08-05T10:20:26.444Z,31.40
2022-08-05T10:23:34.353Z,31.50
2022-08-05T10:26:32.720Z,31.40
2022-08-05T10:29:24.007Z,31.60
2022-08-05T10:32:52.722Z,31.60
2022-08-05T10:35:44.334Z,31.70
2022-08-05T10:38:36.223Z,31.90
2022-08-05T10:41:46.688Z,32.20
2022-08-05T10:44:36.647Z,32.10
2022-08-05T10:47:34.406Z,32.20
2022-08-05T10:50:36.664Z,32.40
2022-08-05T10:53:58.429Z,32.20
2022-08-05T10:56:58.536Z,32.40
2022-08-05T11:00:02.726Z,32.40
2022-08-05T11:03:24.501Z,32.40
2022-08-05T11:06:15.733Z,32.70
2022-08-05T11:09:32.039Z,32.60
2022-08-05T11:12:45.324Z,32.50
2022-08-05T11:16:01.080Z,32.50
2022-08-05T11:20:17.442Z,32.70
2022-08-05T11:22:50.014Z,32.80
2022-08-05T11:26:04.903Z,32.80
2022-08-05T11:28:54.597Z,32.70
2022-08-05T11:31:57.639Z,32.60
2022-08-05T11:34:54.207Z,32.50
2022-08-05T11:38:28.067Z,32.60
2022-08-05T11:41:34.137Z,32.80
2022-08-05T11:44:40.212Z,33.20
2022-08-05T11:47:49.803Z,33.30
2022-08-05T11:50:39.401Z,33.30
2022-08-05T11:53:28.145Z,33.40
2022-08-05T11:56:41.158Z,33.40
2022-08-05T11:59:31.061Z,33.50
2022-08-05T12:02:40.151Z,33.50
2022-08-05T12:05:36.093Z,33.60
2022-08-05T12:08:27.271Z,33.40
2022-08-05T12:11:40.410Z,33.50
2022-08-05T12:14:43.701Z,33.40
2022-08-05T12:18:03.808Z,33.50
2022-08-05T12:20:44.860Z,33.70
2022-08-05T12:23:33.159Z,33.80
2022-08-05T12:26:21.364Z,33.70
2022-08-05T12:29:16.108Z,33.50
2022-08-05T12:32:07.515Z,33.40
2022-08-05T12:34:57.528Z,33.50
2022-08-05T12:37:47.905Z,33.70
2022-08-05T12:40:36.609Z,34.00
2022-08-05T12:43:27.160Z,34.10
2022-08-05T12:46:31.701Z,34.20
2022-08-05T12:49:19.292Z,34.20
2022-08-05T12:52:25.540Z,34.40
2022-08-05T12:55:22.061Z,34.30
2022-08-05T12:58:49.098Z,34.10
2022-08-05T13:02:00.180Z,33.80
2022-08-05T13:04:52.479Z,33.80
2022-08-05T13:08:01.384Z,34.00
2022-08-05T13:10:50.728Z,34.10
2022-08-05T13:14:05.169Z,34.30
2022-08-05T13:16:56.601Z,34.40
2022-08-05T13:20:10.605Z,34.40
2022-08-05T13:22:58.986Z,34.50
2022-08-05T13:25:52.016Z,34.40
2022-08-05T13:28:46.625Z,34.20
2022-08-05T13:32:03.675Z,33.80
2022-08-05T13:34:41.745Z,33.90
2022-08-05T13:37:34.615Z,34.10
2022-08-05T13:40:36.525Z,34.30
2022-08-05T13:43:44.164Z,34.30
2022-08-05T13:46:51.026Z,34.50
2022-08-05T13:49:45.048Z,34.40
2022-08-05T13:52:35.497Z,34.50
2022-08-05T13:55:41.915Z,34.60
2022-08-05T13:58:31.600Z,34.70
2022-08-05T14:01:19.155Z,34.80
2022-08-05T14:04:26.645Z,34.90
2022-08-05T14:07:25.376Z,34.80
2022-08-05T14:10:28.467Z,34.70
2022-08-05T14:13:18.445Z,34.80
2022-08-05T14:16:11.267Z,34.70
2022-08-05T14:19:04.418Z,34.90
2022-08-05T14:22:09.403Z,34.80
2022-08-05T14:24:59.390Z,34.60
2022-08-05T14:27:48.532Z,34.60
2022-08-05T14:30:36.066Z,34.60
2022-08-05T14:33:24.303Z,34.80
2022-08-05T14:36:12.045Z,34.90
2022-08-05T14:38:59.699Z,34.90
2022-08-05T14:42:15.921Z,34.80
2022-08-05T14:44:58.345Z,34.90
2022-08-05T14:48:05.572Z,35.10
2022-08-05T14:50:53.799Z,35.10
2022-08-05T14:53:44.593Z,35.20
2022-08-05T14:56:32.310Z,35.30
2022-08-05T14:59:21.896Z,35.20
2022-08-05T15:02:15.769Z,35.00
2022-08-05T15:05:08.562Z,35.00
2022-08-05T15:08:08.980Z,35.00
2022-08-05T15:11:00.785Z,34.80
2022-08-05T15:13:50.287Z,34.60
2022-08-05T15:16:38.620Z,34.70
2022-08-05T15:19:27.939Z,34.80
2022-08-05T15:22:18.210Z,34.80
2022-08-05T15:25:11.986Z,34.70
2022-08-05T15:28:02.547Z,34.70
2022-08-05T15:30:51.575Z,34.60
2022-08-05T15:34:18.730Z,34.40
2022-08-05T15:36:49.310Z,34.10
2022-08-05T15:40:59.389Z,33.60
2022-08-05T15:42:55.149Z,33.40
2022-08-05T15:45:46.291Z,33.00
2022-08-05T15:48:33.771Z,32.70
2022-08-05T15:52:03.746Z,32.60
2022-08-05T15:54:37.539Z,32.50
2022-08-05T15:57:25.403Z,32.50
2022-08-05T16:00:32.703Z,32.50
2022-08-05T16:03:28.450Z,32.40
2022-08-05T16:06:20.418Z,32.50
2022-08-05T16:09:08.265Z,32.30
2022-08-05T16:11:57.525Z,32.30
2022-08-05T16:14:45.057Z,32.30
2022-08-05T16:17:34.125Z,32.20
2022-08-05T16:20:21.776Z,32.10
2022-08-05T16:23:10.209Z,32.00
2022-08-05T16:26:09.856Z,32.00
2022-08-05T16:28:57.614Z,31.80
2022-08-05T16:31:57.153Z,31.70
2022-08-05T16:34:45.245Z,31.70
2022-08-05T16:38:03.378Z,31.70
2022-08-05T16:40:55.133Z,31.70
2022-08-05T16:43:47.121Z,31.70
2022-08-05T16:46:35.513Z,31.70
2022-08-05T16:49:23.816Z,31.70
2022-08-05T16:52:11.760Z,31.60
2022-08-05T16:55:00.652Z,31.50
2022-08-05T16:57:59.795Z,31.40
2022-08-05T17:00:49.627Z,31.30
2022-08-05T17:03:37.452Z,31.30
2022-08-05T17:06:26.482Z,31.30
2022-08-05T17:09:14.028Z,31.20
2022-08-05T17:12:02.045Z,31.20
2022-08-05T17:14:50.510Z,31.10
2022-08-05T17:17:42.680Z,31.00
2022-08-05T17:20:30.740Z,30.80
2022-08-05T17:24:05.035Z,30.80
2022-08-05T17:26:25.726Z,30.60
2022-08-05T17:29:13.218Z,30.50
2022-08-05T17:32:00.983Z,30.30
2022-08-05T17:34:49.660Z,30.20
2022-08-05T17:37:41.715Z,30.00
2022-08-05T17:40:32.885Z,30.00
2022-08-05T17:43:46.788Z,29.90
2022-08-05T17:46:28.124Z,29.70
2022-08-05T17:49:15.756Z,29.60
2022-08-05T17:52:03.390Z,29.50
2022-08-05T17:54:50.906Z,29.50
2022-08-05T17:57:43.493Z,29.40
2022-08-05T18:00:40.881Z,29.30
2022-08-05T18:03:59.781Z,29.30
2022-08-05T18:06:41.133Z,29.20
2022-08-05T18:10:00.447Z,29.10
2022-08-05T18:12:41.952Z,28.90
2022-08-05T18:15:34.097Z,28.90
2022-08-05T18:18:21.869Z,28.80
2022-08-05T18:21:20.067Z,28.70
2022-08-05T18:24:12.529Z,28.60
2022-08-05T18:27:01.898Z,28.60
2022-08-05T18:29:54.411Z,28.40
2022-08-05T18:32:42.342Z,28.40
2022-08-05T18:35:59.829Z,28.30
2022-08-05T18:38:50.332Z,28.20
2022-08-05T18:41:58.004Z,28.00
2022-08-05T18:44:49.219Z,27.90
2022-08-05T18:47:42.998Z,27.80
2022-08-05T18:50:49.609Z,27.70
2022-08-05T18:53:42.933Z,27.60
2022-08-05T18:56:34.730Z,27.50
2022-08-05T18:59:43.961Z,27.40
2022-08-05T19:02:29.885Z,27.30
2022-08-05T19:06:11.363Z,27.30
2022-08-05T19:08:30.863Z,27.20
2022-08-05T19:11:28.028Z,27.10
2022-08-05T19:14:37.995Z,27.10
2022-08-05T19:17:23.905Z,27.00
2022-08-05T19:20:21.564Z,27.10
2022-08-05T19:23:22.627Z,27.10
2022-08-05T19:26:19.201Z,27.10
2022-08-05T19:29:07.003Z,27.10
2022-08-05T19:31:57.337Z,27.10
2022-08-05T19:34:54.722Z,27.00
2022-08-05T19:38:04.175Z,27.10
2022-08-05T19:40:50.535Z,27.10
2022-08-05T19:44:06.401Z,27.20
2022-08-05T19:46:51.286Z,27.20
2022-08-05T19:49:38.786Z,27.30
2022-08-05T19:52:31.678Z,27.50
2022-08-05T19:56:14.043Z,27.60
2022-08-05T19:58:28.871Z,27.70
2022-08-05T20:01:21.729Z,27.70
2022-08-05T20:04:16.156Z,27.70
2022-08-05T20:07:10.247Z,27.70
2022-08-05T20:10:00.898Z,27.70
2022-08-05T20:12:49.188Z,27.70
2022-08-05T20:15:52.073Z,27.60
2022-08-05T20:18:43.590Z,27.50
2022-08-05T20:21:32.515Z,27.30
2022-08-05T20:24:20.766Z,27.20
2022-08-05T20:27:11.094Z,27.20
2022-08-05T20:29:59.356Z,27.10
2022-08-05T20:32:47.559Z,27.10
2022-08-05T20:35:40.556Z,27.10
2022-08-05T20:38:35.508Z,27.20
2022-08-05T20:41:23.953Z,27.10
2022-08-05T20:44:18.488Z,27.10
2022-08-05T20:47:17.226Z,27.10
2022-08-05T20:50:07.731Z,27.00
2022-08-05T20:52:55.221Z,26.90
2022-08-05T20:55:55.148Z,26.80
2022-08-05T20:58:44.511Z,26.70
2022-08-05T21:01:37.374Z,26.60
2022-08-05T21:04:27.092Z,26.50
2022-08-05T21:07:14.870Z,26.40
2022-08-05T21:10:02.442Z,26.30
2022-08-05T21:12:57.843Z,26.20
2022-08-05T21:15:51.115Z,26.10
2022-08-05T21:18:38.900Z,26.00
2022-08-05T21:21:44.545Z,26.00
2022-08-05T21:24:38.871Z,25.90
2022-08-05T21:27:27.371Z,25.80
2022-08-05T21:30:17.644Z,25.70
2022-08-05T21:33:08.353Z,25.60
2022-08-05T21:35:59.305Z,25.50
2022-08-05T21:38:46.839Z,25.50
2022-08-05T21:41:35.691Z,25.40
2022-08-05T21:44:26.756Z,25.20
2022-08-05T21:47:32.759Z,25.10
2022-08-05T21:50:22.790Z,25.00
2022-08-05T21:53:17.553Z,25.00
2022-08-05T21:56:16.641Z,24.90
2022-08-05T21:59:07.951Z,24.90
2022-08-05T22:02:09.981Z,24.80
2022-08-05T22:04:58.688Z,24.80
2022-08-05T22:07:58.504Z,24.80
2022-08-05T22:10:50.261Z,24.80
2022-08-05T22:14:33.135Z,24.80
2022-08-05T22:16:51.086Z,24.90
2022-08-05T22:20:00.502Z,25.00
2022-08-05T22:23:16.927Z,25.00
2022-08-05T22:26:23.630Z,25.00
2022-08-05T22:29:11.871Z,25.00
2022-08-05T22:32:03.180Z,24.90
2022-08-05T22:34:50.997Z,24.90
2022-08-05T22:37:59.328Z,24.80
2022-08-05T22:40:49.462Z,24.80
2022-08-05T22:43:40.675Z,24.80
2022-08-05T22:46:28.135Z,24.70
2022-08-05T22:49:46.255Z,24.70
2022-08-05T22:52:32.142Z,24.60
2022-08-05T22:55:23.955Z,24.70
2022-08-05T22:58:14.539Z,24.80
2022-08-05T23:01:02.187Z,24.80
2022-08-05T23:03:58.234Z,24.90
2022-08-05T23:06:47.747Z,24.90
2022-08-05T23:09:58.004Z,24.80
2022-08-05T23:12:43.804Z,24.80
2022-08-05T23:15:35.206Z,24.70
2022-08-05T23:18:23.795Z,24.70
2022-08-05T23:21:11.372Z,24.70
2022-08-05T23:24:11.069Z,24.70
2022-08-05T23:26:59.165Z,24.70
2022-08-05T23:29:49.281Z,24.70
2022-08-05T23:32:40.738Z,24.80
2022-08-05T23:35:34.471Z,24.70
2022-08-05T23:38:22.136Z,24.70
2022-08-05T23:41:10.857Z,24.70
2022-08-05T23:44:05.833Z,24.60
2022-08-05T23:46:54.181Z,24.50
2022-08-05T23:49:45.868Z,24.40
2022-08-05T23:52:36.205Z,24.40
2022-08-05T23:55:37.635Z,24.30
2022-08-05T23:58:32.006Z,24.20
